Time;durP1;ratioP1;P1;durP2;ratioP2;P2;SDS_P1;SDS_P2;PMS_P1;PMS_P2;Temp;Humidity;BMP_temperature;BMP_pressure;BME280_temperature;BME280_humidity;BME280_pressure;Samples;Min_cycle;Max_cycle;Signal;HPM_P1;HPM_P2
2024/01/01 00:01:47;;;;;;;3.97;0.52;;;;;;;7.11;78.51;97793.75;5021000;28;20060;-50
2024/01/01 00:04:14;;;;;;;1.75;0.55;;;;;;;7.06;79.02;97795.63;5020462;28;20076;-45
2024/01/01 00:06:41;;;;;;;3.00;0.55;;;;;;;7.12;77.79;97799.78;5017504;28;20042;-48
2024/01/01 00:09:09;;;;;;;0.73;0.32;;;;;;;7.11;78.67;97809.22;5020410;28;20068;-48
2024/01/01 00:11:37;;;;;;;4.85;0.85;;;;;;;7.13;77.86;97807.44;5018880;28;20413;-42
2024/01/01 00:14:04;;;;;;;2.75;0.75;;;;;;;7.12;77.89;97810.88;5025006;28;20054;-47
2024/01/01 00:16:31;;;;;;;3.80;0.93;;;;;;;7.11;77.99;97809.22;5021954;28;20100;-50
2024/01/01 00:18:58;;;;;;;4.80;0.95;;;;;;;7.15;77.46;97821.13;5047069;28;20052;-49
2024/01/01 00:21:27;;;;;;;1.88;0.60;;;;;;;7.17;77.88;97824.47;5041129;28;20049;-48
2024/01/01 00:23:53;;;;;;;3.88;0.95;;;;;;;7.18;78.43;97812.47;5041465;28;20057;-46
2024/01/01 00:26:20;;;;;;;4.63;0.73;;;;;;;7.13;77.98;97817.72;5046350;28;20052;-46
2024/01/01 00:28:47;;;;;;;2.30;0.93;;;;;;;7.02;77.07;97827.44;5044361;28;20086;-50
2024/01/01 00:31:13;;;;;;;2.03;1.02;;;;;;;7.03;77.39;97842.03;5041516;28;20521;-46
2024/01/01 00:33:40;;;;;;;2.95;0.70;;;;;;;7.03;77.80;97852.31;5040031;28;20049;-44
2024/01/01 00:36:07;;;;;;;3.42;0.70;;;;;;;7.04;77.43;97857.44;5045715;28;20052;-52
2024/01/01 00:38:34;;;;;;;3.13;0.98;;;;;;;7.04;77.50;97865.16;5042273;28;20506;-50
2024/01/01 00:41:01;;;;;;;4.13;0.50;;;;;;;7.01;77.02;97869.50;5045404;28;20048;-47
2024/01/01 00:43:27;;;;;;;3.33;0.63;;;;;;;6.91;77.25;97869.72;5041050;28;20052;-48
2024/01/01 00:45:55;;;;;;;5.28;0.80;;;;;;;6.94;77.52;97874.81;5036283;28;20056;-46
2024/01/01 00:48:23;;;;;;;2.83;0.70;;;;;;;6.94;77.20;97872.25;5034420;28;20051;-50
2024/01/01 00:50:50;;;;;;;3.53;0.88;;;;;;;6.97;78.13;97867.88;5039239;28;20060;-45
2024/01/01 00:53:17;;;;;;;2.55;0.75;;;;;;;6.88;77.32;97874.94;5036585;28;20049;-46
2024/01/01 00:55:44;;;;;;;1.65;0.70;;;;;;;6.85;77.90;97879.31;5039504;28;20168;-49
2024/01/01 00:58:10;;;;;;;2.17;0.52;;;;;;;6.79;78.09;97880.31;5042393;28;20127;-48
2024/01/01 01:00:38;;;;;;;1.05;0.70;;;;;;;6.72;77.18;97881.31;5042479;28;20045;-43
2024/01/01 01:03:06;;;;;;;2.15;0.60;;;;;;;6.66;77.08;97888.28;5043154;28;20111;-55
2024/01/01 01:05:36;;;;;;;4.28;1.92;;;;;;;6.70;77.91;97899.38;5033196;28;20049;-49
2024/01/01 01:08:03;;;;;;;4.15;0.70;;;;;;;6.73;78.08;97906.16;5027482;28;20052;-45
2024/01/01 01:10:34;;;;;;;4.15;0.85;;;;;;;6.81;77.16;97901.69;5046056;28;20138;-49
2024/01/01 01:13:00;;;;;;;3.10;1.05;;;;;;;6.84;76.66;97909.34;5021294;28;20045;-45
2024/01/01 01:15:31;;;;;;;5.38;1.70;;;;;;;6.75;76.99;97909.56;5037071;28;20060;-50
2024/01/01 01:17:58;;;;;;;1.58;0.50;;;;;;;6.73;77.23;97921.59;5037741;28;21814;-48
2024/01/01 01:20:25;;;;;;;3.10;0.55;;;;;;;6.77;77.84;97920.66;5039245;28;20045;-49
2024/01/01 01:22:51;;;;;;;2.90;0.80;;;;;;;6.79;77.00;97927.44;5038604;28;20099;-48
2024/01/01 01:25:18;;;;;;;4.78;1.23;;;;;;;6.79;78.23;97927.44;5019772;28;20129;-48
2024/01/01 01:27:45;;;;;;;5.80;1.08;;;;;;;6.82;76.64;97936.81;5044526;28;20045;-44
2024/01/01 01:30:13;;;;;;;2.38;0.52;;;;;;;6.79;76.89;97944.63;5040754;28;20089;-46
2024/01/01 01:32:40;;;;;;;1.10;0.60;;;;;;;6.79;77.27;97947.22;5041254;28;20132;-51
2024/01/01 01:35:07;;;;;;;2.08;1.23;;;;;;;6.83;76.79;97943.69;5039281;28;20570;-50
2024/01/01 01:37:34;;;;;;;3.83;1.05;;;;;;;6.90;78.02;97960.69;5040567;28;20056;-50
2024/01/01 01:40:00;;;;;;;4.10;0.70;;;;;;;6.91;77.56;97956.38;5016489;28;20065;-50
2024/01/01 01:42:27;;;;;;;3.08;0.60;;;;;;;6.86;76.75;97961.63;5022663;28;20049;-44
2024/01/01 01:44:54;;;;;;;0.77;0.50;;;;;;;6.77;77.80;97964.38;5022917;28;20066;-49
2024/01/01 01:47:23;;;;;;;0.88;0.82;;;;;;;6.76;76.52;97967.84;5012139;28;20052;-49
2024/01/01 01:49:53;;;;;;;1.75;1.20;;;;;;;6.77;77.47;97966.97;5018399;28;20076;-47
2024/01/01 01:52:20;;;;;;;5.07;1.42;;;;;;;6.74;76.77;97977.31;5018346;28;20053;-45
2024/01/01 01:54:51;;;;;;;5.78;0.82;;;;;;;6.75;76.41;97987.56;5021684;28;20056;-50
2024/01/01 01:57:19;;;;;;;2.53;0.85;;;;;;;6.76;76.09;97983.28;5023231;28;20056;-45
2024/01/01 01:59:46;;;;;;;1.42;0.52;;;;;;;6.77;76.63;97978.13;5021460;28;20058;-50
2024/01/01 02:02:14;;;;;;;0.90;0.43;;;;;;;6.69;76.40;97988.56;5027147;28;20045;-45
2024/01/01 02:04:41;;;;;;;2.40;0.77;;;;;;;6.67;76.14;97995.47;5017673;28;20057;-48
2024/01/01 02:07:08;;;;;;;5.18;0.63;;;;;;;6.71;77.18;97991.09;5020317;28;20045;-44
2024/01/01 02:09:35;;;;;;;1.48;0.77;;;;;;;6.71;76.34;98000.53;5016568;28;20045;-45
2024/01/01 02:12:02;;;;;;;5.05;0.82;;;;;;;6.66;77.24;98004.03;5019736;28;20045;-49
2024/01/01 02:14:29;;;;;;;7.00;2.00;;;;;;;6.65;77.28;97999.78;5020459;28;20610;-45
2024/01/01 02:16:57;;;;;;;5.57;1.40;;;;;;;6.53;75.90;97994.88;5025460;28;20045;-48
2024/01/01 02:19:27;;;;;;;1.83;1.10;;;;;;;6.54;76.15;98006.84;5017503;28;20049;-50
2024/01/01 02:21:55;;;;;;;0.95;0.50;;;;;;;6.44;76.34;98013.91;5021408;28;20149;-47
2024/01/01 02:24:22;;;;;;;2.33;0.73;;;;;;;6.50;77.13;98018.09;5019358;28;20060;-50
2024/01/01 02:26:49;;;;;;;2.90;0.70;;;;;;;6.45;77.32;98025.88;5019366;28;20111;-50
2024/01/01 02:29:16;;;;;;;1.50;0.75;;;;;;;6.39;77.02;98021.69;5012438;28;20050;-48
2024/01/01 02:31:45;;;;;;;4.05;1.10;;;;;;;6.40;75.94;98033.69;5020196;28;20780;-53
2024/01/01 02:34:13;;;;;;;2.10;0.65;;;;;;;6.29;76.13;98040.75;5019672;28;20038;-46
2024/01/01 02:36:40;;;;;;;3.92;0.50;;;;;;;6.32;76.72;98030.41;5019462;28;20791;-44
2024/01/01 02:39:07;;;;;;;2.22;0.45;;;;;;;6.29;76.62;98051.03;5019598;28;20458;-51
2024/01/01 02:41:35;;;;;;;6.53;0.77;;;;;;;6.28;76.76;98062.19;5019967;28;20045;-48
2024/01/01 02:44:03;;;;;;;2.25;0.50;;;;;;;6.32;77.20;98056.13;5018751;28;20049;-49
2024/01/01 02:46:30;;;;;;;7.22;0.95;;;;;;;6.26;76.32;98056.22;5018774;28;20073;-48
2024/01/01 02:48:56;;;;;;;2.80;0.50;;;;;;;6.28;77.06;98057.88;5040844;28;20681;-48
2024/01/01 02:51:23;;;;;;;3.42;0.68;;;;;;;6.27;76.68;98063.91;5025017;28;20062;-49
2024/01/01 02:53:50;;;;;;;2.30;0.68;;;;;;;6.28;77.08;98075.03;5019415;28;20057;-46
2024/01/01 02:56:20;;;;;;;2.40;0.77;;;;;;;6.24;76.70;98083.66;5017418;28;20056;-45
2024/01/01 02:58:47;;;;;;;2.35;1.00;;;;;;;6.22;76.97;98080.28;5012638;28;20107;-48
2024/01/01 03:01:14;;;;;;;4.22;0.82;;;;;;;6.23;75.99;98081.97;5022014;28;20049;-43
2024/01/01 03:03:41;;;;;;;2.83;0.43;;;;;;;6.15;77.35;98090.66;5007203;28;20052;-51
2024/01/01 03:06:08;;;;;;;1.35;0.90;;;;;;;6.14;77.07;98104.41;5019411;28;20061;-48
2024/01/01 03:08:37;;;;;;;2.72;0.95;;;;;;;6.09;77.69;98115.63;5022918;28;20069;-49
2024/01/01 03:11:04;;;;;;;1.13;0.60;;;;;;;6.18;76.01;98115.47;5014349;28;20070;-46
2024/01/01 03:13:32;;;;;;;1.73;0.57;;;;;;;6.10;76.44;98122.44;5020221;28;20468;-44
2024/01/01 03:16:00;;;;;;;1.30;0.57;;;;;;;6.07;77.20;98125.94;5046276;28;20486;-47
2024/01/01 03:18:27;;;;;;;5.18;0.60;;;;;;;6.10;77.68;98127.59;5029939;28;20129;-50
2024/01/01 03:20:54;;;;;;;2.70;0.68;;;;;;;6.12;76.09;98131.84;5033140;28;20140;-48
2024/01/01 03:23:21;;;;;;;0.47;0.45;;;;;;;6.09;76.75;98138.75;5043383;28;20037;-47
2024/01/01 03:25:47;;;;;;;5.90;1.00;;;;;;;6.07;76.23;98148.19;5047180;28;20048;-48
2024/01/01 03:28:14;;;;;;;1.27;0.52;;;;;;;6.10;77.70;98154.16;5040538;28;20045;-47
2024/01/01 03:30:42;;;;;;;0.77;0.43;;;;;;;6.07;76.30;98164.47;5041361;28;20052;-47
2024/01/01 03:33:10;;;;;;;2.05;0.57;;;;;;;6.12;76.42;98169.56;5041289;28;20098;-51
2024/01/01 03:35:37;;;;;;;0.73;0.40;;;;;;;6.13;76.61;98179.81;5047229;28;20052;-52
2024/01/01 03:38:04;;;;;;;1.27;0.47;;;;;;;6.13;76.63;98182.41;5038431;28;20049;-45
2024/01/01 03:40:33;;;;;;;1.73;0.63;;;;;;;6.16;76.92;98194.34;5042777;28;20051;-46
2024/01/01 03:43:00;;;;;;;0.85;0.40;;;;;;;6.15;77.04;98198.63;5058972;28;20107;-49
2024/01/01 03:45:27;;;;;;;5.55;0.52;;;;;;;6.12;75.98;98198.66;5042803;28;20098;-50
2024/01/01 03:47:54;;;;;;;4.15;0.63;;;;;;;6.11;76.22;98202.13;5027048;28;20052;-45
2024/01/01 03:50:21;;;;;;;0.80;0.40;;;;;;;6.09;76.31;98198.75;5023417;28;20460;-43
2024/01/01 03:52:48;;;;;;;1.13;0.50;;;;;;;5.99;76.97;98204.84;5021703;28;20131;-46
2024/01/01 03:55:16;;;;;;;3.00;1.08;;;;;;;5.97;77.53;98204.00;5017194;28;20466;-45
2024/01/01 03:57:44;;;;;;;0.20;0.20;;;;;;;5.97;77.45;98201.41;5024796;28;20132;-44
2024/01/01 04:00:12;;;;;;;1.48;0.35;;;;;;;6.00;76.41;98203.97;5015683;28;20049;-50
2024/01/01 04:02:40;;;;;;;1.88;0.50;;;;;;;5.93;77.88;98208.34;5023293;28;20498;-48
2024/01/01 04:05:08;;;;;;;4.53;0.60;;;;;;;5.94;77.72;98211.78;5021145;28;20145;-50
2024/01/01 04:07:37;;;;;;;1.80;0.65;;;;;;;5.98;76.51;98216.00;5042285;28;20159;-47
2024/01/01 04:10:06;;;;;;;2.17;1.90;;;;;;;5.95;78.06;98213.47;5037352;28;20573;-51
2024/01/01 04:12:33;;;;;;;2.13;0.57;;;;;;;5.88;76.63;98216.09;5036466;28;20048;-46
2024/01/01 04:15:00;;;;;;;2.97;0.65;;;;;;;5.90;77.99;98219.50;5041900;28;20048;-48
2024/01/01 04:17:27;;;;;;;2.33;1.17;;;;;;;5.86;78.42;98223.00;5044464;28;20068;-43
2024/01/01 04:19:54;;;;;;;1.00;0.20;;;;;;;5.81;78.57;98229.88;5035357;28;20049;-45
2024/01/01 04:22:21;;;;;;;4.18;0.95;;;;;;;5.86;77.18;98233.28;5044264;28;20049;-51
2024/01/01 04:24:52;;;;;;;3.83;0.70;;;;;;;5.81;78.12;98232.47;5041103;28;20095;-50
2024/01/01 04:27:19;;;;;;;0.40;0.40;;;;;;;5.72;78.55;98237.72;5028132;28;20046;-46
2024/01/01 04:29:45;;;;;;;0.60;0.50;;;;;;;5.78;78.34;98245.38;5031167;28;20053;-48
2024/01/01 04:32:12;;;;;;;4.07;0.82;;;;;;;5.75;78.43;98245.41;5042069;28;20042;-49
2024/01/01 04:34:40;;;;;;;6.22;0.73;;;;;;;5.73;77.87;98257.41;5031278;28;20046;-54
2024/01/01 04:37:07;;;;;;;2.35;0.73;;;;;;;5.75;78.70;98255.69;5024535;28;20139;-49
2024/01/01 04:39:34;;;;;;;2.50;0.82;;;;;;;5.78;78.58;98260.78;5024204;28;20045;-48
2024/01/01 04:42:00;;;;;;;2.80;0.43;;;;;;;5.77;77.27;98270.19;5028007;28;20045;-45
2024/01/01 04:44:27;;;;;;;0.57;0.30;;;;;;;5.70;77.60;98260.00;5028459;28;20049;-46
2024/01/01 04:46:54;;;;;;;0.52;0.40;;;;;;;5.72;77.46;98268.56;5017916;28;20045;-49
2024/01/01 04:49:21;;;;;;;4.72;0.85;;;;;;;5.73;78.04;98265.09;5021626;28;20048;-50
2024/01/01 04:51:47;;;;;;;2.17;1.00;;;;;;;5.68;77.55;98269.47;5024368;28;20049;-48
2024/01/01 04:54:14;;;;;;;2.17;0.70;;;;;;;5.70;78.11;98277.97;5022607;28;20068;-51
2024/01/01 04:56:41;;;;;;;1.33;0.60;;;;;;;5.71;78.49;98275.41;5019602;28;20061;-44
2024/01/01 04:59:07;;;;;;;3.88;0.65;;;;;;;5.64;78.32;98279.75;5025728;28;20053;-47
2024/01/01 05:01:34;;;;;;;1.10;0.65;;;;;;;5.69;78.72;98286.56;5026720;28;20065;-45
2024/01/01 05:04:03;;;;;;;2.05;0.60;;;;;;;5.68;78.39;98290.00;5025193;28;20052;-44
2024/01/01 05:06:30;;;;;;;1.90;1.42;;;;;;;5.68;77.43;98300.28;5024577;28;20058;-47
2024/01/01 05:08:57;;;;;;;1.60;0.57;;;;;;;5.64;78.03;98300.31;5025084;28;20045;-51
2024/01/01 05:11:23;;;;;;;1.83;0.30;;;;;;;5.63;78.00;98308.03;5022313;28;20518;-46
2024/01/01 05:13:50;;;;;;;1.10;1.00;;;;;;;5.56;77.32;98306.38;5026694;28;20442;-51
2024/01/01 05:16:17;;;;;;;1.15;0.43;;;;;;;5.62;78.19;98307.19;5027096;28;20141;-46
2024/01/01 05:18:44;;;;;;;2.60;0.77;;;;;;;5.60;77.14;98303.78;5021580;28;20057;-50
2024/01/01 05:21:11;;;;;;;5.97;0.65;;;;;;;5.55;77.86;98302.13;5027188;28;20053;-47
2024/01/01 05:23:37;;;;;;;3.28;0.68;;;;;;;5.56;77.51;98308.97;5022182;28;20492;-48
2024/01/01 05:26:06;;;;;;;2.00;0.60;;;;;;;5.58;77.65;98310.66;5020749;28;20072;-53
2024/01/01 05:28:33;;;;;;;3.25;0.93;;;;;;;5.51;77.97;98309.03;5025210;28;20061;-46
2024/01/01 05:31:00;;;;;;;0.65;0.55;;;;;;;5.51;78.73;98309.84;5022610;28;20046;-44
2024/01/01 05:33:27;;;;;;;1.42;0.68;;;;;;;5.57;77.87;98321.78;5020006;28;20053;-43
2024/01/01 05:35:55;;;;;;;2.38;0.68;;;;;;;5.60;77.19;98329.47;5015493;28;20116;-49
2024/01/01 05:38:22;;;;;;;1.20;0.60;;;;;;;5.59;78.11;98326.91;5015641;28;20046;-46
2024/01/01 05:40:49;;;;;;;0.68;0.50;;;;;;;5.59;77.71;98327.78;5015088;28;20050;-45
2024/01/01 05:43:15;;;;;;;3.55;0.85;;;;;;;5.57;77.97;98339.75;5024074;28;20410;-50
2024/01/01 05:45:42;;;;;;;2.90;0.52;;;;;;;5.58;78.19;98341.50;5019253;28;20057;-49
2024/01/01 05:48:10;;;;;;;1.25;0.77;;;;;;;5.48;78.35;98357.84;5024451;28;20048;-49
2024/01/01 05:50:51;;;;;;;0.55;0.55;;;;;;;5.53;77.27;98353.50;5018262;28;20133;-49
2024/01/01 05:53:18;;;;;;;1.77;0.70;;;;;;;5.57;78.63;98355.16;5023350;28;20057;-49
2024/01/01 05:55:45;;;;;;;6.82;1.95;;;;;;;5.57;77.18;98365.44;5019285;28;20623;-47
2024/01/01 05:58:12;;;;;;;1.15;0.43;;;;;;;5.58;77.01;98371.44;5023456;28;20049;-45
2024/01/01 06:00:39;;;;;;;4.88;0.80;;;;;;;5.56;76.77;98366.31;5018686;28;20084;-47
2024/01/01 06:03:06;;;;;;;4.40;0.80;;;;;;;5.52;77.16;98367.22;5027035;28;20053;-44
2024/01/01 06:05:35;;;;;;;1.60;0.30;;;;;;;5.53;77.67;98384.31;5023075;28;20136;-50
2024/01/01 06:08:04;;;;;;;1.38;0.65;;;;;;;5.52;77.16;98372.34;5021486;28;20063;-42
2024/01/01 06:10:32;;;;;;;0.95;0.50;;;;;;;5.50;76.67;98394.63;5022866;28;20049;-52
2024/01/01 06:12:59;;;;;;;1.70;1.10;;;;;;;5.48;77.60;98386.94;5041933;28;20048;-50
2024/01/01 06:15:27;;;;;;;0.63;0.57;;;;;;;5.47;76.91;98392.09;5044369;28;20053;-52
2024/01/01 06:17:53;;;;;;;1.05;0.63;;;;;;;5.48;78.06;98394.66;5044676;28;20654;-45
2024/01/01 06:20:20;;;;;;;2.85;0.82;;;;;;;5.50;76.82;98402.31;5041264;28;20041;-46
2024/01/01 06:22:47;;;;;;;0.82;0.40;;;;;;;5.45;76.86;98406.66;5041935;28;20056;-48
2024/01/01 06:25:14;;;;;;;2.38;0.82;;;;;;;5.40;77.19;98415.25;5042336;28;20072;-50
2024/01/01 06:27:41;;;;;;;5.53;0.70;;;;;;;5.47;77.00;98430.63;5042714;28;20048;-47
2024/01/01 06:30:07;;;;;;;3.42;0.50;;;;;;;5.43;78.03;98441.78;5040254;28;20055;-46
2024/01/01 06:32:34;;;;;;;1.13;0.98;;;;;;;5.43;77.13;98439.22;5044638;28;20106;-45
2024/01/01 06:35:01;;;;;;;1.42;0.60;;;;;;;5.45;77.79;98447.75;5042827;28;20123;-44
2024/01/01 06:37:28;;;;;;;1.38;0.45;;;;;;;5.49;77.50;98444.28;5044221;28;20052;-49
2024/01/01 06:39:55;;;;;;;4.05;0.55;;;;;;;5.48;76.99;98452.84;5043522;28;20045;-51
2024/01/01 06:42:23;;;;;;;2.25;0.50;;;;;;;5.46;76.58;98459.72;5045176;28;20053;-51
2024/01/01 06:44:49;;;;;;;2.72;0.57;;;;;;;5.47;77.84;98467.41;5044740;28;20052;-49
2024/01/01 06:47:16;;;;;;;2.03;0.98;;;;;;;5.44;76.54;98471.72;5047532;28;20056;-46
2024/01/01 06:49:43;;;;;;;1.90;0.50;;;;;;;5.44;78.04;98476.84;5043780;28;20491;-51
2024/01/01 06:52:10;;;;;;;5.25;0.70;;;;;;;5.40;77.62;98491.41;5040852;28;20140;-48
2024/01/01 06:54:40;;;;;;;1.48;0.90;;;;;;;5.33;77.09;98490.59;5022142;28;20038;-43
2024/01/01 06:57:07;;;;;;;3.28;0.68;;;;;;;5.39;77.00;98500.00;5020211;28;20621;-48
2024/01/01 06:59:34;;;;;;;3.15;0.52;;;;;;;5.35;77.65;98499.16;5024589;28;20045;-43
2024/01/01 07:02:00;;;;;;;1.42;0.40;;;;;;;5.39;77.86;98506.00;5022457;28;20064;-50
2024/01/01 07:04:27;;;;;;;3.05;0.68;;;;;;;5.37;78.00;98515.41;5026419;28;20052;-44
2024/01/01 07:06:56;;;;;;;2.33;0.50;;;;;;;5.35;77.43;98518.84;5013002;28;20049;-52
2024/01/01 07:09:22;;;;;;;3.42;1.30;;;;;;;5.36;77.88;98521.41;5015742;28;20060;-46
2024/01/01 07:11:49;;;;;;;0.65;0.55;;;;;;;5.29;78.03;98514.59;5016979;28;20072;-47
2024/01/01 07:14:16;;;;;;;5.50;0.50;;;;;;;5.32;76.75;98524.84;5024777;28;20419;-46
2024/01/01 07:16:42;;;;;;;1.58;0.60;;;;;;;5.31;77.68;98520.59;5021115;28;20046;-52
2024/01/01 07:19:09;;;;;;;0.80;0.57;;;;;;;5.29;77.46;98524.88;5021278;28;20071;-46
2024/01/01 07:21:36;;;;;;;2.92;1.02;;;;;;;5.30;78.10;98536.00;5022521;28;20055;-48
2024/01/01 07:24:03;;;;;;;1.77;1.67;;;;;;;5.28;76.66;98528.31;5027128;28;20041;-45
2024/01/01 07:26:31;;;;;;;4.72;0.55;;;;;;;5.28;77.16;98533.44;5024563;28;20099;-45
2024/01/01 07:28:57;;;;;;;3.08;0.70;;;;;;;5.24;76.63;98531.75;5021467;28;20060;-47
2024/01/01 07:31:25;;;;;;;3.22;1.20;;;;;;;5.24;77.59;98542.84;5026849;28;20132;-45
2024/01/01 07:33:51;;;;;;;2.78;0.52;;;;;;;5.23;77.52;98545.44;5023656;28;20042;-48
2024/01/01 07:36:18;;;;;;;3.75;0.95;;;;;;;5.24;78.00;98552.28;5020476;28;20053;-43
2024/01/01 07:38:49;;;;;;;2.75;0.60;;;;;;;5.22;77.71;98561.69;5017919;28;20410;-47
2024/01/01 07:41:16;;;;;;;3.85;0.63;;;;;;;5.15;77.09;98566.00;5020394;28;20051;-51
2024/01/01 07:43:43;;;;;;;5.93;0.80;;;;;;;5.17;78.11;98576.28;5018845;28;20045;-48
2024/01/01 07:46:10;;;;;;;2.55;0.70;;;;;;;5.16;76.67;98574.59;5012679;28;20041;-42
2024/01/01 07:48:37;;;;;;;5.88;1.48;;;;;;;5.14;77.48;98585.69;5021569;28;20180;-45
2024/01/01 07:51:04;;;;;;;13.68;4.90;;;;;;;5.10;77.07;98591.69;5015625;28;20060;-46
2024/01/01 07:53:31;;;;;;;16.42;7.90;;;;;;;5.11;76.64;98588.28;5017857;28;20041;-44
2024/01/01 07:56:01;;;;;;;7.53;3.60;;;;;;;5.09;76.97;98600.25;5025252;28;20487;-48
2024/01/01 07:58:28;;;;;;;;;;;;;;;5.01;76.83;98589.19;5025735;28;20116;-49
2024/01/01 08:00:55;;;;;;;6.53;3.08;;;;;;;5.03;76.71;98605.41;5020318;28;19925;-47
2024/01/01 08:03:25;;;;;;;4.55;2.10;;;;;;;5.00;77.83;98600.31;5021352;28;20061;-46
2024/01/01 08:05:51;;;;;;;5.60;2.28;;;;;;;4.98;77.32;98617.41;5022164;28;20049;-45
2024/01/01 08:08:20;;;;;;;6.78;2.17;;;;;;;5.03;77.36;98620.81;5028518;28;20100;-48
2024/01/01 08:10:46;;;;;;;7.80;3.28;;;;;;;5.03;77.22;98618.25;5028053;28;20057;-44
2024/01/01 08:13:13;;;;;;;12.40;4.65;;;;;;;5.01;77.25;98627.66;5026592;28;20129;-42
2024/01/01 08:15:40;;;;;;;18.77;6.30;;;;;;;5.00;77.03;98631.09;5026983;28;20042;-49
2024/01/01 08:18:06;;;;;;;10.05;2.97;;;;;;;5.00;76.43;98633.66;5026004;28;20049;-48
2024/01/01 08:20:34;;;;;;;6.93;2.45;;;;;;;4.99;77.20;98634.50;5025674;28;20046;-46
2024/01/01 08:23:00;;;;;;;6.68;1.70;;;;;;;5.00;77.50;98646.50;5020296;28;20052;-49
2024/01/01 08:25:27;;;;;;;5.72;1.23;;;;;;;4.96;77.76;98649.94;5018522;28;20049;-47
2024/01/01 08:27:54;;;;;;;2.80;0.95;;;;;;;4.99;77.36;98644.78;5025283;28;20049;-50
2024/01/01 08:30:20;;;;;;;5.72;1.52;;;;;;;4.99;76.29;98655.03;5025206;28;20392;-48
2024/01/01 08:32:47;;;;;;;5.93;1.35;;;;;;;4.97;77.51;98661.91;5029269;28;20140;-50
2024/01/01 08:35:14;;;;;;;10.02;3.92;;;;;;;4.97;76.84;98661.91;5024661;28;20096;-50
2024/01/01 08:37:42;;;;;;;18.00;4.65;;;;;;;4.98;76.69;98664.47;5022831;28;20061;-47
2024/01/01 08:40:11;;;;;;;1.52;0.88;;;;;;;4.97;76.70;98673.00;5025501;28;20056;-49
2024/01/01 08:42:38;;;;;;;7.57;0.90;;;;;;;4.97;77.87;98682.44;5022592;28;20088;-43
2024/01/01 08:45:05;;;;;;;4.85;0.95;;;;;;;4.99;76.67;98686.69;5019932;28;20049;-42
2024/01/01 08:47:32;;;;;;;8.38;1.27;;;;;;;5.03;76.95;98674.69;5027770;28;20045;-46
2024/01/01 08:49:59;;;;;;;5.13;0.73;;;;;;;5.07;77.65;98686.66;5020743;28;20048;-44
2024/01/01 08:52:26;;;;;;;6.65;1.40;;;;;;;5.10;77.54;98686.66;5022761;28;20065;-45
2024/01/01 08:54:52;;;;;;;3.67;0.85;;;;;;;5.17;77.81;98684.09;5029758;28;20042;-47
2024/01/01 08:57:19;;;;;;;3.80;0.90;;;;;;;5.38;78.04;98696.84;5024183;28;20517;-50
2024/01/01 08:59:45;;;;;;;6.28;1.88;;;;;;;5.66;78.12;98694.19;5022690;28;20049;-46
2024/01/01 09:02:12;;;;;;;5.97;1.13;;;;;;;6.00;77.54;98708.56;5017598;28;20046;-50
2024/01/01 09:04:39;;;;;;;6.38;0.80;;;;;;;6.42;77.65;98703.19;5026774;28;20042;-48
2024/01/01 09:07:06;;;;;;;2.60;0.70;;;;;;;6.84;75.67;98711.41;5020698;28;20059;-46
2024/01/01 09:09:34;;;;;;;7.88;0.82;;;;;;;7.15;76.20;98706.84;5021125;28;20045;-46
2024/01/01 09:12:01;;;;;;;7.07;1.27;;;;;;;7.49;75.90;98715.06;5020112;28;20502;-52
2024/01/01 09:14:27;;;;;;;5.85;1.00;;;;;;;7.91;75.26;98717.97;5015357;28;20052;-50
2024/01/01 09:16:54;;;;;;;3.63;0.82;;;;;;;8.38;74.20;98713.88;5025910;28;20045;-46
2024/01/01 09:19:21;;;;;;;7.47;1.70;;;;;;;8.72;73.88;98721.13;5026505;28;20156;-52
2024/01/01 09:21:48;;;;;;;7.45;1.25;;;;;;;9.21;72.99;98716.84;5025125;28;20050;-50
2024/01/01 09:24:15;;;;;;;8.60;2.67;;;;;;;9.50;70.48;98723.16;5016097;28;20850;-47
2024/01/01 09:26:41;;;;;;;13.38;3.42;;;;;;;9.85;71.00;98719.88;5021583;28;20045;-51
2024/01/01 09:29:09;;;;;;;61.75;15.93;;;;;;;10.05;70.31;98731.53;5019718;28;20071;-42
2024/01/01 09:31:37;;;;;;;23.02;5.63;;;;;;;10.29;70.29;98731.00;5018481;28;20045;-48
2024/01/01 09:34:06;;;;;;;25.13;7.78;;;;;;;10.57;69.00;98734.69;5017515;28;20107;-47
2024/01/01 09:36:34;;;;;;;16.38;6.05;;;;;;;10.99;69.11;98744.06;5022899;28;20107;-50
2024/01/01 09:39:14;;;;;;;12.43;5.13;;;;;;;11.43;67.52;98748.97;5019550;28;20066;-45
2024/01/01 09:41:41;;;;;;;13.60;2.83;;;;;;;11.88;67.04;98752.03;5023426;28;20057;-49
2024/01/01 09:44:11;;;;;;;7.60;1.55;;;;;;;12.31;67.16;98741.28;5018155;28;20503;-47
2024/01/01 09:46:38;;;;;;;;;;;;;;;12.67;66.09;98748.81;5015792;28;20041;-42
2024/01/01 09:49:06;;;;;;;7.85;1.10;;;;;;;13.14;66.50;98755.06;5024237;28;19927;-45
2024/01/01 09:51:38;;;;;;;9.82;1.23;;;;;;;13.58;65.18;98762.25;5019756;28;21146;-47
2024/01/01 09:54:06;;;;;;;12.40;2.92;;;;;;;13.88;64.32;98759.44;5018814;28;20114;-46
2024/01/01 09:56:33;;;;;;;12.32;5.30;;;;;;;14.15;63.31;98761.06;5024523;28;20046;-48
2024/01/01 09:59:01;;;;;;;9.43;3.33;;;;;;;14.43;63.15;98760.00;5025489;28;20052;-47
2024/01/01 10:01:30;;;;;;;10.75;2.20;;;;;;;14.76;62.49;98775.19;5012208;28;20056;-47
2024/01/01 10:04:03;;;;;;;9.95;1.83;;;;;;;14.99;61.30;98769.97;5041385;28;20152;-49
2024/01/01 10:06:30;;;;;;;10.43;2.00;;;;;;;15.16;60.42;98775.34;5043292;28;20063;-49
2024/01/01 10:09:13;;;;;;;9.02;1.55;;;;;;;15.33;59.03;98781.59;5043895;28;20049;-45
2024/01/01 10:11:42;;;;;;;8.82;1.27;;;;;;;15.49;59.04;98786.13;5037278;28;20516;-45
2024/01/01 10:14:11;;;;;;;10.05;1.90;;;;;;;15.68;58.70;98794.84;5044705;28;20536;-51
2024/01/01 10:16:39;;;;;;;7.30;1.75;;;;;;;15.90;58.06;98793.91;5037692;28;20046;-46
2024/01/01 10:19:07;;;;;;;7.82;1.90;;;;;;;16.09;57.89;98803.56;5040513;28;20490;-51
2024/01/01 10:21:35;;;;;;;10.93;2.13;;;;;;;16.23;56.59;98802.06;5041509;28;20103;-51
2024/01/01 10:24:21;;;;;;;7.93;2.00;;;;;;;16.34;55.79;98797.19;5039000;28;20695;-52
2024/01/01 10:27:00;;;;;;;10.68;1.50;;;;;;;16.39;55.38;98797.84;5023512;28;20621;-49
2024/01/01 10:29:35;;;;;;;8.80;1.92;;;;;;;16.44;55.59;98808.91;5030274;28;20114;-49
2024/01/01 10:32:04;;;;;;;6.90;1.30;;;;;;;16.43;54.25;98807.22;5039196;28;20046;-47
2024/01/01 10:34:31;;;;;;;4.05;1.65;;;;;;;16.40;54.25;98799.53;5038723;28;20052;-51
2024/01/01 10:36:59;;;;;;;6.97;1.40;;;;;;;16.32;53.46;98806.88;5026230;28;20491;-51
2024/01/01 10:39:27;;;;;;;7.78;1.48;;;;;;;16.09;52.65;98802.69;5030331;28;20510;-50
2024/01/01 10:41:54;;;;;;;5.72;2.45;;;;;;;15.90;52.80;98804.34;5035489;28;20048;-47
2024/01/01 10:44:21;;;;;;;7.03;1.48;;;;;;;15.60;52.63;98799.56;5043203;28;20049;-52
2024/01/01 10:46:51;;;;;;;7.40;1.23;;;;;;;15.11;52.31;98802.53;5044704;28;20451;-52
2024/01/01 10:49:23;;;;;;;;;;;;;;;14.34;51.07;98795.06;5049611;28;20045;-54
2024/01/01 11:00:41;;;;;;;7.30;0.90;;;;;;;12.91;56.21;98794.84;5027591;27;20938;-46
2024/01/01 11:03:13;;;;;;;5.65;1.10;;;;;;;12.60;56.70;98813.09;5022698;28;20160;-52
2024/01/01 11:05:41;;;;;;;15.55;1.95;;;;;;;12.42;57.09;98800.69;5020551;28;20050;-47
2024/01/01 11:08:08;;;;;;;4.43;0.95;;;;;;;12.31;56.86;98799.28;5020854;28;20133;-48
2024/01/01 11:13:32;;;;;;;5.93;1.60;;;;;;;11.91;57.83;98795.19;5071732;27;20426;-49
2024/01/01 11:16:04;;;;;;;11.60;2.17;;;;;;;11.60;58.23;98806.44;5036753;28;20637;-48
2024/01/01 11:18:33;;;;;;;15.77;6.00;;;;;;;11.39;58.99;98795.75;4998986;28;20061;-50
2024/01/01 11:21:06;;;;;;;8.85;2.75;;;;;;;11.10;58.21;98805.09;5028835;28;20052;-52
2024/01/01 11:23:41;;;;;;;5.95;1.52;;;;;;;10.97;60.47;98809.75;5022882;28;20046;-49
2024/01/01 11:31:36;;;;;;;5.13;1.00;;;;;;;10.91;59.99;98823.72;5051917;28;22030;-50
2024/01/01 11:36:40;;;;;;;10.48;1.10;;;;;;;10.72;61.46;98837.09;5058918;27;20776;-44
2024/01/01 11:39:08;;;;;;;4.47;1.88;;;;;;;10.63;61.29;98835.56;5056055;28;20127;-47
2024/01/01 11:41:35;;;;;;;6.35;0.90;;;;;;;10.63;62.49;98838.13;5056044;28;20049;-47
2024/01/01 11:44:10;;;;;;;9.07;0.63;;;;;;;10.79;61.63;98833.47;5048312;28;20064;-53
2024/01/01 11:46:38;;;;;;;5.55;2.17;;;;;;;10.92;62.23;98817.63;5054277;27;20163;-46
2024/01/01 11:49:05;;;;;;;9.70;2.33;;;;;;;10.93;62.00;98829.69;5051572;28;20052;-47
2024/01/01 11:51:47;;;;;;;9.57;2.05;;;;;;;10.74;61.83;98824.09;5054824;28;20751;-48
2024/01/01 11:54:14;;;;;;;6.60;1.83;;;;;;;10.56;61.88;98821.03;5048343;28;20040;-48
2024/01/01 11:56:41;;;;;;;7.32;1.08;;;;;;;10.40;61.31;98833.44;5045014;28;20445;-50
2024/01/01 11:59:08;;;;;;;6.82;0.65;;;;;;;10.18;61.30;98835.63;5053256;28;20064;-48
2024/01/01 12:01:37;;;;;;;8.73;1.02;;;;;;;9.96;62.10;98831.72;5050241;28;20079;-50